Accueil
METAR-TAF:

METAR-TAF

Aéroports :

Boscombe Down, Angleterre

latitude: 51-10N, longitude: 001-45W, altitude: 124 m

Observation

Le bulletin a été fait il y a 22 minutes, à 17:50 UTC
Vent 15 kt de sud-ouest
Température 20°C
Humidité 68%
Pression 1016 hPa
Visibilité 10 km ou plus

METAR: EGDM 151750Z AUTO 22015KT 9999 BKN034/// 20/14 Q1016

Heure: 19:12 (18:12 UTC)


TAF: absent

Observations et prévisions météorologiques de plus de 4000 aéroports (messages METAR et TAF).

Les stations disponibles sont représentées par des disques jaunes et rouges sur la carte.

Passer la souris dessus pour voir le nom de la station.

Cliquer dessus pour voir les observations et prévisions météorologiques.

Pour changer de carte: cliquez sur les boutons verts avec une croix noire pour zoomer, sur le bouton vert avec un tiret pour effectuer un zoom arrière, ou sur les flèches vertes pour les cartes adjacentes.


METAR-TAF: